weather.gov     
National Weather Service

Terminal Aerodrome Forecast
NWS Homepage
This page is being discontinued on March 12, 2014.
The same data is available at this site. Please update your bookmarks.
Thank you, and we apologize for the inconvenience.
Please send an email to SR-SRH.Webmaster@noaa.gov with any concerns.


Current Version
Previous Version:    01  02  03  04  05  06  07  08  09  10  11  12  13  14  15  16  17  18  19  20  21  22  23  24  25  26  27  
[Printable]
417
FTUS42 KTBW 291700
TAFPGD
TAF
KPGD 291740Z 2918/3018 VRB05KT P6SM VCTS SCT040CB SCT100
      TEMPO 2918/2920 VRB15G25KT 3SM TSRA BKN030CB
     FM292100 20006KT P6SM VCTS SCT030CB BKN080
     FM300100 VRB04KT P6SM SCT025 BKN130
     FM300400 09003KT P6SM SCT250
     FM301400 13007KT P6SM SCT025 SCT250
     FM301700 14007KT P6SM VCTS SCT035CB SCT100=


U.S. Dept. of Commerce
NOAA National Weather Service
1325 East West Highway
Silver Spring, MD 20910
E-mail: w-nws.webmaster@noaa.gov
Page last modified: May 16, 2007
NATIONAL WEATHER SERVICE: for Safety, for Work, for Fun - FOR LIFE